Time;durP1;ratioP1;P1;durP2;ratioP2;P2;SDS_P1;SDS_P2;PMS_P1;PMS_P2;Temp;Humidity;BMP_temperature;BMP_pressure;BME280_temperature;BME280_humidity;BME280_pressure;Samples;Min_cycle;Max_cycle;Signal;HPM_P1;HPM_P2
2021/12/02 00:00:55;;;;;;;7.93;0.97;;;4.30;99.90;;;;;;5038882;28;20032;-73
2021/12/02 00:03:21;;;;;;;8.03;0.90;;;4.30;99.90;;;;;;5021994;28;20045;-72
2021/12/02 00:05:47;;;;;;;7.33;0.80;;;4.30;99.90;;;;;;5041364;28;20090;-72
2021/12/02 00:08:13;;;;;;;6.90;0.90;;;4.30;99.90;;;;;;5020118;28;20489;-72
2021/12/02 00:10:40;;;;;;;5.97;1.45;;;4.30;99.90;;;;;;5034557;28;20104;-72
2021/12/02 00:13:07;;;;;;;4.18;0.63;;;4.30;99.90;;;;;;5022964;28;20048;-72
2021/12/02 00:15:39;;;;;;;8.88;1.33;;;4.20;99.90;;;;;;5011648;28;20119;-72
2021/12/02 00:23:46;;;;;;;4.97;1.10;;;4.10;99.90;;;;;;5016547;28;20058;-72
2021/12/02 00:26:19;;;;;;;4.28;1.17;;;4.10;99.90;;;;;;5018145;28;20049;-72
2021/12/02 00:28:53;;;;;;;9.27;1.80;;;4.10;99.90;;;;;;5022245;28;20057;-72
2021/12/02 00:31:21;;;;;;;5.45;1.25;;;4.00;99.90;;;;;;5039587;28;20066;-72
2021/12/02 00:33:53;;;;;;;4.95;0.75;;;4.00;99.90;;;;;;5023913;28;20055;-72
2021/12/02 00:36:21;;;;;;;6.35;0.98;;;4.00;99.90;;;;;;5037752;28;20033;-72
2021/12/02 00:38:47;;;;;;;4.18;1.58;;;4.00;99.90;;;;;;5035146;28;20452;-72
2021/12/02 00:41:16;;;;;;;2.00;0.63;;;4.10;99.90;;;;;;5018403;28;20110;-76
2021/12/02 00:43:43;;;;;;;7.25;0.73;;;4.10;99.90;;;;;;5015283;28;20103;-71
2021/12/02 00:46:14;;;;;;;1.75;0.65;;;4.00;99.90;;;;;;5023755;28;20045;-72
2021/12/02 00:48:41;;;;;;;4.25;0.80;;;4.10;99.90;;;;;;5020767;28;20441;-71
2021/12/02 00:51:08;;;;;;;3.33;0.40;;;4.20;99.90;;;;;;5041536;28;20037;-72
2021/12/02 00:53:36;;;;;;;1.88;0.30;;;4.10;99.90;;;;;;5031714;28;20037;-72
2021/12/02 00:56:04;;;;;;;3.63;0.30;;;4.10;99.90;;;;;;5043861;28;20127;-72
2021/12/02 00:58:34;;;;;;;3.10;0.60;;;4.10;99.90;;;;;;5021701;28;20092;-72
2021/12/02 01:01:00;;;;;;;2.20;0.40;;;4.10;99.90;;;;;;5024858;28;20087;-72
2021/12/02 01:03:31;;;;;;;;;;;4.10;99.90;;;;;;5038826;28;20040;-72
2021/12/02 01:05:57;;;;;;;2.90;0.35;;;4.10;99.90;;;;;;5018415;28;20405;-72
2021/12/02 01:08:25;;;;;;;4.53;0.50;;;4.10;99.90;;;;;;5034719;28;20041;-71
2021/12/02 01:10:50;;;;;;;4.03;0.43;;;4.10;99.90;;;;;;5022331;28;20136;-72
2021/12/02 01:13:16;;;;;;;5.67;1.47;;;4.10;99.90;;;;;;5038408;28;20096;-71
2021/12/02 01:15:42;;;;;;;2.27;0.40;;;4.10;99.90;;;;;;5031651;28;20544;-72
2021/12/02 01:18:07;;;;;;;7.77;1.47;;;4.00;99.90;;;;;;5020944;28;20045;-73
2021/12/02 01:20:34;;;;;;;6.13;0.63;;;4.00;99.90;;;;;;5041190;28;20477;-71
2021/12/02 01:23:01;;;;;;;2.33;0.35;;;3.90;99.90;;;;;;5031466;28;20044;-72
2021/12/02 01:25:30;;;;;;;2.00;0.40;;;3.90;99.90;;;;;;5024881;28;20037;-72
2021/12/02 01:27:58;;;;;;;3.50;0.47;;;3.80;99.90;;;;;;5022369;28;20036;-72
2021/12/02 01:30:29;;;;;;;1.27;0.50;;;3.70;99.90;;;;;;5034979;28;20462;-71
2021/12/02 01:33:02;;;;;;;2.20;0.45;;;3.70;99.90;;;;;;5035416;28;20068;-72
2021/12/02 01:35:29;;;;;;;8.07;0.60;;;3.70;99.90;;;;;;5010250;28;20586;-73
2021/12/02 01:37:55;;;;;;;1.42;0.30;;;3.70;99.90;;;;;;5014703;28;20041;-72
2021/12/02 01:40:21;;;;;;;5.53;0.40;;;3.70;99.90;;;;;;5030502;28;20057;-72
2021/12/02 01:42:52;;;;;;;3.75;0.32;;;3.70;99.90;;;;;;5020360;28;20037;-72
2021/12/02 01:45:21;;;;;;;2.03;0.50;;;3.70;99.90;;;;;;5024656;28;20846;-72
2021/12/02 01:47:51;;;;;;;2.53;0.50;;;3.60;99.90;;;;;;5038880;28;20061;-72
2021/12/02 01:50:20;;;;;;;4.57;0.43;;;3.60;99.90;;;;;;5031656;28;20045;-72
2021/12/02 01:52:49;;;;;;;3.38;0.47;;;3.60;99.90;;;;;;5029462;28;20036;-72
2021/12/02 01:55:16;;;;;;;2.88;0.52;;;3.60;99.90;;;;;;5039683;28;20064;-72
2021/12/02 01:58:03;;;;;;;4.80;0.80;;;3.60;99.90;;;;;;5028399;28;20076;-72
2021/12/02 02:00:42;;;;;;;4.10;0.40;;;3.60;99.90;;;;;;5027765;28;20082;-72
2021/12/02 02:03:10;;;;;;;2.30;0.38;;;3.60;99.90;;;;;;5016264;28;20121;-72
2021/12/02 02:05:36;;;;;;;4.00;0.57;;;3.60;99.90;;;;;;5019069;28;20393;-72
2021/12/02 02:08:12;;;;;;;5.82;0.65;;;3.60;99.90;;;;;;5032590;28;20048;-72
2021/12/02 02:10:50;;;;;;;7.05;0.80;;;3.60;99.90;;;;;;5043348;28;20498;-72
2021/12/02 02:13:19;;;;;;;6.35;0.95;;;3.70;99.90;;;;;;5020712;28;20041;-73
2021/12/02 02:15:48;;;;;;;3.15;1.27;;;3.70;99.90;;;;;;5039170;28;20080;-72
2021/12/02 02:18:21;;;;;;;2.28;0.70;;;3.60;99.90;;;;;;5024853;28;20051;-72
2021/12/02 02:23:27;;;;;;;2.67;0.38;;;3.60;99.90;;;;;;5017565;28;20059;-72
2021/12/02 02:25:52;;;;;;;0.65;0.30;;;3.50;99.90;;;;;;5029246;28;20169;-72
2021/12/02 02:28:20;;;;;;;3.23;1.33;;;3.50;99.90;;;;;;5039585;28;20046;-72
2021/12/02 02:30:46;;;;;;;4.20;1.00;;;3.50;99.90;;;;;;5038893;28;20563;-72
2021/12/02 02:33:13;;;;;;;4.57;0.75;;;3.40;99.90;;;;;;5038273;28;20033;-72
2021/12/02 02:35:41;;;;;;;2.28;0.47;;;3.40;99.90;;;;;;5030600;28;20437;-72
2021/12/02 02:38:07;;;;;;;0.80;0.20;;;3.30;99.90;;;;;;5035541;28;20513;-72
2021/12/02 02:40:33;;;;;;;2.27;0.50;;;3.30;99.90;;;;;;5039179;28;20053;-72
2021/12/02 02:43:06;;;;;;;3.92;1.02;;;3.20;99.90;;;;;;5043604;28;20520;-72
2021/12/02 02:45:31;;;;;;;6.45;0.50;;;3.20;99.90;;;;;;5012690;28;20508;-72
2021/12/02 02:47:57;;;;;;;1.10;0.40;;;3.20;99.90;;;;;;5041766;28;20041;-72
2021/12/02 02:50:23;;;;;;;3.97;0.93;;;3.20;99.90;;;;;;5025902;28;20053;-72
2021/12/02 02:52:56;;;;;;;1.87;1.03;;;3.10;99.90;;;;;;5032803;28;20296;-72
2021/12/02 02:55:24;;;;;;;4.72;1.02;;;3.10;99.90;;;;;;5023716;28;20033;-72
2021/12/02 02:58:02;;;;;;;1.65;0.38;;;3.00;99.90;;;;;;5040963;28;20038;-72
2021/12/02 03:00:42;;;;;;;2.20;0.50;;;3.10;99.90;;;;;;5021151;28;20049;-72
2021/12/02 03:06:32;;;;;;;1.85;0.47;;;3.10;99.90;;;;;;5024739;28;20052;-72
2021/12/02 03:08:40;;;;;;;3.30;0.50;;;3.10;99.90;;;;;;5023179;28;20046;-72
2021/12/02 03:11:08;;;;;;;;;;;3.20;99.90;;;;;;5019621;28;20053;-72
2021/12/02 03:13:39;;;;;;;1.65;0.13;;;3.20;99.90;;;;;;5021200;28;20592;-72
2021/12/02 03:18:51;;;;;;;0.98;0.22;;;3.20;99.90;;;;;;5042159;28;20053;-72
2021/12/02 03:21:22;;;;;;;0.93;0.25;;;3.10;99.90;;;;;;5023496;28;20045;-72
2021/12/02 03:23:56;;;;;;;1.00;0.10;;;3.20;99.90;;;;;;5021060;28;20092;-72
2021/12/02 03:26:22;;;;;;;2.40;0.45;;;3.10;99.90;;;;;;5037656;28;20045;-72
2021/12/02 03:28:48;;;;;;;0.40;0.17;;;3.10;99.90;;;;;;5014016;28;20432;-72
2021/12/02 03:31:15;;;;;;;1.15;0.30;;;3.10;99.90;;;;;;5035487;28;20372;-73
2021/12/02 03:33:41;;;;;;;4.28;0.77;;;3.00;99.90;;;;;;5004173;28;20095;-72
2021/12/02 03:36:08;;;;;;;0.98;0.47;;;3.00;99.90;;;;;;5024219;28;20033;-73
2021/12/02 03:38:34;;;;;;;;;;;3.00;99.90;;;;;;5039193;28;20047;-72
2021/12/02 03:41:00;;;;;;;1.00;0.13;;;2.90;99.90;;;;;;5006739;28;20462;-72
2021/12/02 03:43:27;;;;;;;1.63;0.20;;;2.90;99.90;;;;;;5038617;28;20045;-72
2021/12/02 03:45:54;;;;;;;1.35;0.10;;;2.90;99.90;;;;;;5036853;28;20029;-72
2021/12/02 03:48:23;;;;;;;4.25;0.57;;;2.90;99.90;;;;;;5044072;28;20063;-73
2021/12/02 03:50:48;;;;;;;3.38;0.20;;;2.80;99.90;;;;;;5042108;28;20080;-72
2021/12/02 03:53:14;;;;;;;0.87;0.10;;;2.80;99.90;;;;;;5024766;28;20517;-72
2021/12/02 03:55:42;;;;;;;3.57;0.30;;;2.80;99.90;;;;;;5015100;28;20475;-72
2021/12/02 03:58:07;;;;;;;1.25;0.17;;;2.80;99.90;;;;;;5021310;28;20482;-73
2021/12/02 04:00:35;;;;;;;5.57;1.00;;;2.70;99.90;;;;;;5038259;28;20135;-72
2021/12/02 04:03:00;;;;;;;0.88;0.28;;;2.70;99.90;;;;;;5036018;28;20068;-72
2021/12/02 04:05:26;;;;;;;2.40;0.70;;;2.70;99.90;;;;;;5019540;28;20434;-72
2021/12/02 04:07:52;;;;;;;2.03;0.80;;;2.80;99.90;;;;;;5040836;28;20033;-72
2021/12/02 04:10:19;;;;;;;0.87;0.40;;;2.70;99.90;;;;;;5022164;28;20482;-72
2021/12/02 04:13:03;;;;;;;3.33;0.32;;;2.90;99.90;;;;;;5036857;28;20440;-72
2021/12/02 04:15:32;;;;;;;1.25;0.20;;;2.80;99.90;;;;;;5022605;28;20052;-72
2021/12/02 04:17:57;;;;;;;0.75;0.20;;;2.80;99.90;;;;;;5012630;28;20457;-72
2021/12/02 04:20:24;;;;;;;1.43;0.20;;;2.80;99.90;;;;;;5035117;28;20029;-72
2021/12/02 04:22:54;;;;;;;0.38;0.10;;;2.90;99.90;;;;;;5036414;28;20037;-73
2021/12/02 04:25:20;;;;;;;2.40;0.45;;;2.90;99.90;;;;;;5029959;28;20305;-73
2021/12/02 04:27:48;;;;;;;0.40;0.00;;;2.90;99.90;;;;;;5039202;28;20036;-71
2021/12/02 04:30:17;;;;;;;1.08;0.10;;;2.90;99.90;;;;;;5011017;28;20061;-73
2021/12/02 04:32:43;;;;;;;1.05;0.10;;;3.00;99.90;;;;;;5014586;28;20041;-72
2021/12/02 04:35:11;;;;;;;0.60;0.10;;;3.00;99.90;;;;;;5027014;28;20389;-72
2021/12/02 04:37:37;;;;;;;0.75;0.40;;;2.90;99.90;;;;;;5019527;28;20055;-72
2021/12/02 04:40:04;;;;;;;0.40;0.08;;;2.90;99.90;;;;;;5015495;28;20053;-72
2021/12/02 04:42:29;;;;;;;0.00;0.00;;;2.90;99.90;;;;;;5025708;28;20053;-72
2021/12/02 04:44:55;;;;;;;0.00;0.00;;;2.90;99.90;;;;;;5026114;28;20091;-72
2021/12/02 04:47:21;;;;;;;1.80;0.20;;;3.00;99.90;;;;;;5032363;28;20068;-72
2021/12/02 04:49:46;;;;;;;0.40;0.20;;;3.00;99.90;;;;;;5033919;28;20048;-72
2021/12/02 04:52:12;;;;;;;1.50;0.10;;;3.00;99.90;;;;;;5013819;28;20045;-72
2021/12/02 04:54:37;;;;;;;1.67;0.30;;;3.00;99.90;;;;;;5025221;28;20036;-72
2021/12/02 04:57:04;;;;;;;1.37;0.27;;;3.00;99.90;;;;;;5038112;28;20092;-72
2021/12/02 04:59:29;;;;;;;0.52;0.10;;;3.00;99.90;;;;;;5039149;28;20045;-72
2021/12/02 05:01:55;;;;;;;1.30;0.27;;;3.10;99.90;;;;;;5035389;28;20033;-72
2021/12/02 05:04:20;;;;;;;5.53;0.40;;;3.00;99.90;;;;;;5011023;28;20044;-72
2021/12/02 05:06:46;;;;;;;3.27;0.60;;;3.10;99.90;;;;;;5022670;28;20128;-72
2021/12/02 05:09:12;;;;;;;1.38;0.40;;;3.10;99.90;;;;;;5031208;28;20048;-72
2021/12/02 05:11:38;;;;;;;5.43;0.50;;;3.20;99.90;;;;;;5022264;28;20117;-72
2021/12/02 05:14:05;;;;;;;1.63;0.20;;;3.20;99.90;;;;;;5036798;28;20061;-72
2021/12/02 05:16:31;;;;;;;;;;;3.20;99.90;;;;;;5039187;28;20444;-72
2021/12/02 05:18:56;;;;;;;2.05;0.40;;;3.30;99.90;;;;;;5037218;28;19971;-73
2021/12/02 05:21:22;;;;;;;2.90;0.53;;;3.20;99.90;;;;;;5041863;28;20062;-72
2021/12/02 05:23:54;;;;;;;5.47;0.40;;;3.30;99.90;;;;;;5034151;28;20517;-72
2021/12/02 05:26:20;;;;;;;2.22;0.30;;;3.30;99.90;;;;;;5040053;28;20053;-72
2021/12/02 05:28:49;;;;;;;4.80;0.63;;;3.30;99.90;;;;;;5016716;28;20123;-72
2021/12/02 05:31:15;;;;;;;1.33;0.30;;;3.30;99.90;;;;;;5038149;28;20041;-72
2021/12/02 05:33:41;;;;;;;1.25;0.40;;;3.20;99.90;;;;;;5031495;28;20037;-72
2021/12/02 05:36:06;;;;;;;2.47;0.57;;;3.20;99.90;;;;;;5036419;28;20048;-72
2021/12/02 05:38:32;;;;;;;4.00;0.40;;;3.30;99.90;;;;;;5020468;28;20044;-73
2021/12/02 05:40:58;;;;;;;4.43;0.70;;;3.20;99.90;;;;;;5017284;28;20516;-73
2021/12/02 05:43:23;;;;;;;2.37;0.80;;;3.20;99.90;;;;;;5021980;28;20140;-72
2021/12/02 05:45:49;;;;;;;4.37;0.67;;;3.30;99.90;;;;;;5041477;28;20044;-72
2021/12/02 05:48:14;;;;;;;2.83;0.53;;;3.30;99.90;;;;;;5042109;28;20311;-72
2021/12/02 05:50:41;;;;;;;1.17;0.27;;;3.30;99.90;;;;;;5014790;28;20258;-72
2021/12/02 05:53:07;;;;;;;2.08;0.40;;;3.30;99.90;;;;;;5040954;28;20505;-73
2021/12/02 05:55:33;;;;;;;3.03;0.50;;;3.40;99.90;;;;;;5017841;28;20040;-72
2021/12/02 05:57:58;;;;;;;1.93;0.37;;;3.30;99.90;;;;;;5038627;28;20094;-73
2021/12/02 06:00:24;;;;;;;1.20;0.30;;;3.30;99.90;;;;;;5037794;28;20327;-73
2021/12/02 06:02:50;;;;;;;0.63;0.33;;;3.30;99.90;;;;;;5029540;28;20052;-73
2021/12/02 06:05:25;;;;;;;5.23;0.40;;;3.30;99.90;;;;;;5022059;28;20132;-72
2021/12/02 06:07:51;;;;;;;1.17;0.38;;;3.30;99.90;;;;;;5036704;28;20053;-72
2021/12/02 06:10:17;;;;;;;;;;;3.20;99.90;;;;;;5018056;28;20487;-73
2021/12/02 06:12:43;;;;;;;2.25;0.30;;;3.30;99.90;;;;;;5040863;28;19924;-73
2021/12/02 06:15:09;;;;;;;1.17;0.40;;;3.20;99.90;;;;;;5040634;28;20040;-72
2021/12/02 06:17:38;;;;;;;2.63;0.30;;;3.20;99.90;;;;;;5035308;28;20065;-72
2021/12/02 06:20:05;;;;;;;2.67;0.40;;;3.20;99.90;;;;;;5040845;28;20070;-72
2021/12/02 06:22:30;;;;;;;2.13;0.25;;;3.20;99.90;;;;;;5007801;28;20119;-73
2021/12/02 06:27:40;;;;;;;2.80;0.65;;;3.20;99.90;;;;;;5024439;28;20044;-73
2021/12/02 06:30:07;;;;;;;2.92;1.10;;;3.20;99.90;;;;;;5044864;22;20053;-72
2021/12/02 06:32:32;;;;;;;2.00;0.28;;;3.20;99.90;;;;;;4981882;28;20152;-72
2021/12/02 06:34:58;;;;;;;4.03;0.40;;;3.10;99.90;;;;;;5000668;28;20049;-72
2021/12/02 06:37:24;;;;;;;2.87;0.40;;;3.10;99.90;;;;;;5024418;28;20041;-72
2021/12/02 06:39:50;;;;;;;1.77;0.52;;;3.20;99.90;;;;;;5013379;28;20792;-72
2021/12/02 06:42:16;;;;;;;3.55;0.85;;;3.20;99.90;;;;;;5017094;28;20042;-72
2021/12/02 06:44:42;;;;;;;2.10;0.60;;;3.20;99.90;;;;;;4999533;28;20102;-72
2021/12/02 06:47:09;;;;;;;2.20;0.50;;;3.20;99.90;;;;;;5002320;28;20290;-72
2021/12/02 06:49:35;;;;;;;0.47;0.20;;;3.30;99.90;;;;;;5006278;28;20510;-72
2021/12/02 06:52:01;;;;;;;2.40;0.20;;;3.20;99.90;;;;;;5006404;28;20595;-72
2021/12/02 06:54:27;;;;;;;2.45;0.30;;;3.20;99.90;;;;;;5016671;28;20041;-72
2021/12/02 06:56:53;;;;;;;1.27;0.50;;;3.20;99.90;;;;;;4997438;28;20046;-73
2021/12/02 06:59:19;;;;;;;1.70;0.37;;;3.20;99.90;;;;;;4995418;28;20041;-72
2021/12/02 07:01:46;;;;;;;0.90;0.38;;;3.20;99.90;;;;;;5016433;28;20792;-72
2021/12/02 07:04:12;;;;;;;0.50;0.20;;;3.10;99.90;;;;;;4991283;28;20050;-72
2021/12/02 07:06:39;;;;;;;2.90;0.28;;;3.20;99.90;;;;;;4999187;28;20412;-72
2021/12/02 07:09:06;;;;;;;4.90;1.27;;;3.20;99.90;;;;;;4997343;28;20061;-72
2021/12/02 07:11:32;;;;;;;1.63;0.38;;;3.20;99.90;;;;;;4998987;28;20054;-72
2021/12/02 07:14:07;;;;;;;2.40;0.35;;;3.10;99.90;;;;;;5004518;28;20041;-72
2021/12/02 07:16:34;;;;;;;2.17;0.65;;;3.10;99.90;;;;;;5000713;28;20056;-72
2021/12/02 07:19:03;;;;;;;2.47;0.43;;;3.10;99.90;;;;;;5000510;28;20049;-72
2021/12/02 07:21:30;;;;;;;0.93;0.28;;;3.20;99.90;;;;;;5000898;28;20041;-72
2021/12/02 07:23:56;;;;;;;0.85;0.20;;;3.20;99.90;;;;;;4997244;28;20067;-72
2021/12/02 07:26:22;;;;;;;2.60;0.77;;;3.20;99.90;;;;;;4996922;28;20413;-72
2021/12/02 07:28:49;;;;;;;0.47;0.20;;;3.20;99.90;;;;;;4992787;28;20033;-72
2021/12/02 07:31:15;;;;;;;2.55;0.30;;;3.20;99.90;;;;;;5002354;28;20285;-72
2021/12/02 07:33:48;;;;;;;1.10;0.30;;;3.10;99.90;;;;;;5006766;28;20030;-73
2021/12/02 07:36:15;;;;;;;2.72;0.50;;;3.10;99.90;;;;;;4992944;28;20081;-72
2021/12/02 07:38:44;;;;;;;3.00;0.52;;;3.00;99.90;;;;;;5014511;28;20041;-72
2021/12/02 07:41:10;;;;;;;2.22;0.70;;;3.00;99.90;;;;;;5002684;28;20038;-75
2021/12/02 07:43:39;;;;;;;2.97;0.98;;;3.00;99.90;;;;;;5001250;28;20041;-75
2021/12/02 07:46:05;;;;;;;2.70;0.82;;;3.00;99.90;;;;;;4983950;28;20041;-72
2021/12/02 07:48:31;;;;;;;1.25;0.60;;;3.00;99.90;;;;;;4999245;28;20065;-70
2021/12/02 07:51:02;;;;;;;3.40;0.67;;;2.90;99.90;;;;;;4997650;28;20533;-73
2021/12/02 07:53:29;;;;;;;3.22;1.33;;;3.00;99.90;;;;;;4991609;28;20309;-73
2021/12/02 07:55:57;;;;;;;5.80;1.20;;;3.00;99.90;;;;;;4993218;28;20068;-72
2021/12/02 07:58:25;;;;;;;2.50;1.40;;;2.90;99.90;;;;;;4992720;28;20042;-72
2021/12/02 08:00:51;;;;;;;3.17;1.10;;;2.90;99.90;;;;;;4987696;28;20038;-72
2021/12/02 08:03:17;;;;;;;2.40;1.00;;;2.90;99.90;;;;;;5022072;28;20041;-73
2021/12/02 08:05:43;;;;;;;3.67;0.60;;;2.90;99.90;;;;;;5011606;28;20052;-72
2021/12/02 08:08:10;;;;;;;3.35;1.17;;;2.90;99.90;;;;;;4987028;28;20076;-73
2021/12/02 08:10:37;;;;;;;1.98;0.85;;;3.00;99.90;;;;;;5002616;28;20132;-73
2021/12/02 08:13:04;;;;;;;3.47;1.20;;;2.90;99.90;;;;;;4998471;28;20061;-73
2021/12/02 08:15:30;;;;;;;6.43;1.02;;;2.90;99.90;;;;;;4996862;28;20176;-73
2021/12/02 08:17:57;;;;;;;;;;;3.00;99.90;;;;;;5002091;28;20048;-72
2021/12/02 08:20:25;;;;;;;2.20;0.73;;;3.00;99.90;;;;;;4986768;28;20433;-73
2021/12/02 08:22:51;;;;;;;1.38;0.88;;;3.00;99.90;;;;;;5001404;28;20660;-73
2021/12/02 08:25:17;;;;;;;3.45;0.90;;;3.00;99.90;;;;;;4991736;28;20037;-73
2021/12/02 08:27:44;;;;;;;2.20;0.70;;;3.00;99.90;;;;;;4982856;28;20072;-73
2021/12/02 08:30:13;;;;;;;2.50;0.90;;;3.00;99.90;;;;;;4997931;28;20132;-73
2021/12/02 08:32:42;;;;;;;2.70;1.05;;;3.10;99.90;;;;;;5009373;28;20069;-73
2021/12/02 08:35:09;;;;;;;2.35;0.77;;;3.10;99.90;;;;;;5009534;28;20041;-73
2021/12/02 08:37:38;;;;;;;0.93;0.60;;;3.10;99.90;;;;;;4990014;28;20038;-74
2021/12/02 08:40:05;;;;;;;1.58;0.60;;;3.10;99.90;;;;;;5010373;28;20425;-73
2021/12/02 08:42:34;;;;;;;2.28;0.50;;;3.10;99.90;;;;;;4996684;28;20044;-72
2021/12/02 08:45:00;;;;;;;5.55;0.88;;;3.20;99.90;;;;;;5004413;28;20128;-74
2021/12/02 08:47:29;;;;;;;1.52;0.60;;;3.10;99.90;;;;;;5011454;28;20038;-73
2021/12/02 08:49:56;;;;;;;3.03;0.63;;;3.20;99.90;;;;;;5014234;28;20045;-73
2021/12/02 08:52:23;;;;;;;1.52;0.65;;;3.20;99.90;;;;;;4995357;28;20048;-73
2021/12/02 08:54:50;;;;;;;1.10;0.52;;;3.30;99.90;;;;;;4995867;28;20041;-73
2021/12/02 08:57:18;;;;;;;2.35;0.70;;;3.40;99.90;;;;;;4990398;28;20121;-73
2021/12/02 08:59:44;;;;;;;3.33;0.80;;;3.40;99.90;;;;;;5004582;28;20049;-73
2021/12/02 09:02:11;;;;;;;2.10;0.80;;;3.40;99.90;;;;;;4990616;28;20475;-73
2021/12/02 09:04:37;;;;;;;;;;;3.40;99.90;;;;;;4995175;28;20582;-73
2021/12/02 09:07:02;;;;;;;5.50;2.15;;;3.40;99.90;;;;;;4998744;28;20282;-73
2021/12/02 09:09:28;;;;;;;5.13;1.10;;;3.40;99.90;;;;;;5016851;28;20379;-73
2021/12/02 09:11:55;;;;;;;4.33;1.40;;;3.50;99.90;;;;;;4990879;28;20532;-73
2021/12/02 09:14:21;;;;;;;;;;;3.50;99.90;;;;;;5005621;28;20420;-73
2021/12/02 09:16:48;;;;;;;5.38;0.80;;;3.50;99.90;;;;;;5001480;28;19921;-73
2021/12/02 09:19:14;;;;;;;4.32;0.90;;;3.50;99.90;;;;;;4990337;28;20057;-73
2021/12/02 09:21:40;;;;;;;2.83;0.73;;;3.50;99.90;;;;;;5004410;28;20045;-73
2021/12/02 09:24:05;;;;;;;5.97;1.67;;;3.50;99.90;;;;;;4994460;28;20076;-73
2021/12/02 09:26:31;;;;;;;3.00;1.57;;;3.50;99.90;;;;;;5005709;28;20150;-73
2021/12/02 09:28:58;;;;;;;3.83;0.77;;;3.50;99.90;;;;;;5002398;28;20099;-73
2021/12/02 09:31:24;;;;;;;6.13;1.20;;;3.50;99.90;;;;;;5018193;28;20572;-73
2021/12/02 09:33:50;;;;;;;5.53;0.77;;;3.50;99.90;;;;;;5022732;28;20033;-73
2021/12/02 09:36:16;;;;;;;4.03;0.70;;;3.50;99.90;;;;;;5018851;28;20048;-73
2021/12/02 09:38:43;;;;;;;5.95;0.88;;;3.60;99.90;;;;;;5004184;28;20045;-73
2021/12/02 09:41:09;;;;;;;;;;;3.60;99.90;;;;;;5016333;28;20034;-73
2021/12/02 09:43:34;;;;;;;0.80;0.50;;;3.60;99.90;;;;;;5012701;28;20128;-73
2021/12/02 09:46:00;;;;;;;2.37;0.73;;;3.60;99.90;;;;;;5015333;28;20060;-73
2021/12/02 09:48:28;;;;;;;4.45;0.80;;;3.70;99.90;;;;;;4993249;28;20037;-73
2021/12/02 09:51:05;;;;;;;2.40;0.70;;;3.70;99.90;;;;;;4998482;28;20417;-73
2021/12/02 09:53:36;;;;;;;2.87;0.77;;;3.60;99.90;;;;;;4997038;28;20530;-73
2021/12/02 09:56:18;;;;;;;1.80;0.80;;;3.70;99.90;;;;;;4990081;28;20334;-73
2021/12/02 09:58:44;;;;;;;1.38;0.65;;;3.70;99.90;;;;;;4998974;28;20081;-74
2021/12/02 10:01:15;;;;;;;1.50;0.73;;;3.80;99.90;;;;;;4984246;28;20088;-73
2021/12/02 10:03:45;;;;;;;1.33;0.60;;;3.90;99.90;;;;;;4992582;28;20045;-74
2021/12/02 10:06:17;;;;;;;4.18;0.90;;;4.00;99.90;;;;;;5006610;28;20072;-74
2021/12/02 10:12:01;;;;;;;4.80;0.80;;;4.30;99.90;;;;;;4998197;28;20346;-74
2021/12/02 10:17:14;;;;;;;4.28;0.93;;;4.60;99.90;;;;;;4996141;28;20077;-73
2021/12/02 10:19:59;;;;;;;4.80;0.80;;;4.80;99.90;;;;;;4981880;28;20201;-74
2021/12/02 10:22:26;;;;;;;7.15;0.93;;;4.90;99.90;;;;;;4994093;28;20048;-74
2021/12/02 10:24:51;;;;;;;2.47;0.40;;;4.80;99.90;;;;;;5003913;28;20578;-74
2021/12/02 10:27:17;;;;;;;6.17;0.50;;;4.50;99.90;;;;;;4994593;28;20046;-73
2021/12/02 10:29:47;;;;;;;3.77;0.70;;;4.20;99.90;;;;;;4996560;28;20045;-72
2021/12/02 10:32:14;;;;;;;1.17;0.60;;;3.80;99.90;;;;;;4986303;28;20099;-73
2021/12/02 10:35:06;;;;;;;1.70;0.50;;;3.50;99.90;;;;;;4999212;28;20056;-73
2021/12/02 10:37:34;;;;;;;2.00;0.40;;;3.30;99.90;;;;;;4974794;28;20046;-72
2021/12/02 10:40:03;;;;;;;0.68;0.40;;;3.10;99.90;;;;;;5003797;28;20046;-72
2021/12/02 10:42:30;;;;;;;1.08;0.30;;;3.00;99.90;;;;;;5007440;28;20088;-72
2021/12/02 10:45:00;;;;;;;1.02;0.20;;;2.90;99.90;;;;;;4996989;28;22005;-72
2021/12/02 10:47:27;;;;;;;0.70;0.20;;;2.80;99.90;;;;;;5025994;28;20068;-72
2021/12/02 10:49:59;;;;;;;1.55;0.30;;;2.70;99.90;;;;;;4989536;28;20131;-72
2021/12/02 10:52:30;;;;;;;2.17;0.30;;;2.70;99.90;;;;;;5021606;28;20296;-72
2021/12/02 10:55:00;;;;;;;2.13;0.28;;;2.70;99.90;;;;;;4997812;28;20030;-72
2021/12/02 10:57:28;;;;;;;2.63;0.40;;;2.70;99.90;;;;;;4999298;28;20045;-72
2021/12/02 10:59:57;;;;;;;1.63;0.60;;;2.70;99.90;;;;;;4995554;28;20636;-73
2021/12/02 11:02:48;;;;;;;1.85;0.60;;;2.70;99.90;;;;;;4994392;28;20537;-73
2021/12/02 11:05:25;;;;;;;3.60;1.00;;;2.70;99.90;;;;;;4989248;28;20042;-73
2021/12/02 11:08:11;;;;;;;;;;;2.70;99.90;;;;;;5014674;28;20072;-76
2021/12/02 11:10:41;;;;;;;1.20;0.57;;;2.70;99.90;;;;;;5001263;28;19940;-75
2021/12/02 11:13:09;;;;;;;1.80;0.55;;;2.80;99.90;;;;;;5000298;28;20403;-72
2021/12/02 11:15:37;;;;;;;1.92;0.80;;;3.00;99.90;;;;;;4993262;28;20056;-72
2021/12/02 11:18:12;;;;;;;1.25;0.65;;;3.10;99.90;;;;;;5002776;28;20045;-80
2021/12/02 11:20:40;;;;;;;3.13;0.80;;;3.30;99.90;;;;;;5024950;28;20045;-72
2021/12/02 11:23:17;;;;;;;1.52;0.60;;;3.50;99.90;;;;;;4992814;28;20134;-74
2021/12/02 11:25:57;;;;;;;0.70;0.40;;;3.60;99.90;;;;;;4992061;28;20252;-73
2021/12/02 11:28:26;;;;;;;1.40;0.77;;;3.70;99.90;;;;;;5002868;28;20303;-75
2021/12/02 11:30:53;;;;;;;1.48;0.65;;;3.70;99.90;;;;;;5011454;28;20085;-72
2021/12/02 11:33:19;;;;;;;3.28;1.30;;;3.70;99.90;;;;;;5001576;28;20129;-72
2021/12/02 11:35:47;;;;;;;3.10;1.30;;;3.70;99.90;;;;;;4992236;28;20120;-72
2021/12/02 11:38:20;;;;;;;3.60;0.70;;;3.90;99.90;;;;;;4997648;28;20048;-72
2021/12/02 11:40:57;;;;;;;2.53;0.80;;;4.00;99.90;;;;;;4991144;28;20053;-72
2021/12/02 11:43:26;;;;;;;2.97;1.10;;;4.10;99.90;;;;;;4998186;28;20413;-72
2021/12/02 11:45:54;;;;;;;2.78;0.70;;;4.20;99.90;;;;;;4992425;28;20217;-72
2021/12/02 11:48:28;;;;;;;2.20;0.30;;;4.30;99.90;;;;;;4984782;28;20076;-72
2021/12/02 11:50:58;;;;;;;1.15;0.38;;;4.40;99.90;;;;;;4996562;28;20053;-72
2021/12/02 11:53:24;;;;;;;2.53;0.32;;;4.50;99.90;;;;;;5003364;28;20533;-72
2021/12/02 11:55:55;;;;;;;3.10;0.50;;;4.50;99.90;;;;;;5002737;28;20218;-72
2021/12/02 11:58:22;;;;;;;0.60;0.43;;;4.40;99.90;;;;;;5014467;28;20116;-73
2021/12/02 12:00:48;;;;;;;1.30;0.47;;;4.50;99.90;;;;;;5001627;28;20034;-72
2021/12/02 12:03:27;;;;;;;0.75;0.35;;;4.50;99.90;;;;;;4996526;28;20399;-72
2021/12/02 12:05:56;;;;;;;0.73;0.28;;;4.50;99.90;;;;;;4995032;28;20498;-72
2021/12/02 12:08:35;;;;;;;0.88;0.10;;;4.50;99.90;;;;;;4996347;28;20492;-72
2021/12/02 12:11:26;;;;;;;2.53;0.20;;;4.40;99.90;;;;;;4987248;28;20626;-72
2021/12/02 12:14:16;;;;;;;1.70;0.30;;;4.40;99.90;;;;;;5004385;28;20041;-72
2021/12/02 12:16:50;;;;;;;0.32;0.10;;;4.40;99.90;;;;;;5005364;28;20072;-72
2021/12/02 12:19:30;;;;;;;0.30;0.10;;;4.40;99.90;;;;;;4996793;28;20048;-72
2021/12/02 12:22:04;;;;;;;0.82;0.17;;;4.40;99.90;;;;;;4994907;28;20266;-72
2021/12/02 12:24:48;;;;;;;2.35;0.17;;;4.50;99.90;;;;;;4997529;28;20124;-72
2021/12/02 12:27:25;;;;;;;0.10;0.10;;;4.50;99.90;;;;;;5002120;28;20277;-72
2021/12/02 12:30:03;;;;;;;;;;;4.60;99.90;;;;;;5016737;28;20556;-72
2021/12/02 12:36:00;;;;;;;0.60;0.20;;;4.70;99.90;;;;;;5003348;28;20064;-72
2021/12/02 12:38:27;;;;;;;0.60;0.20;;;4.80;99.90;;;;;;5006185;28;20037;-73
2021/12/02 12:41:12;;;;;;;0.40;0.20;;;4.90;99.90;;;;;;5001886;28;20125;-72
2021/12/02 12:43:49;;;;;;;1.27;0.10;;;5.10;99.90;;;;;;4992654;28;20053;-72
2021/12/02 12:46:24;;;;;;;0.77;0.50;;;5.10;99.90;;;;;;4994967;28;20494;-72
2021/12/02 12:48:51;;;;;;;0.68;0.20;;;5.20;99.90;;;;;;5008836;28;20041;-73
2021/12/02 12:51:26;;;;;;;2.13;0.40;;;5.30;99.90;;;;;;4988496;28;20080;-72
2021/12/02 12:53:54;;;;;;;0.77;0.30;;;5.30;99.90;;;;;;4990687;28;20099;-73
2021/12/02 12:56:39;;;;;;;0.90;0.30;;;5.30;99.90;;;;;;5010271;28;20037;-73
2021/12/02 12:59:14;;;;;;;1.42;0.35;;;5.20;99.90;;;;;;4995689;28;20061;-73
2021/12/02 13:01:53;;;;;;;1.25;0.70;;;5.10;99.90;;;;;;4987129;28;20038;-73
2021/12/02 13:04:23;;;;;;;2.50;0.82;;;5.00;99.90;;;;;;5007212;28;20068;-72
2021/12/02 13:06:52;;;;;;;1.90;0.57;;;4.90;99.90;;;;;;4997521;28;20113;-72
2021/12/02 13:09:40;;;;;;;2.88;0.68;;;4.80;99.90;;;;;;4988399;28;20637;-73
2021/12/02 13:12:06;;;;;;;2.90;0.40;;;4.70;99.90;;;;;;4993623;28;20120;-72
2021/12/02 13:14:33;;;;;;;3.25;0.20;;;4.60;99.90;;;;;;4993785;28;20391;-72
2021/12/02 13:16:59;;;;;;;1.25;0.22;;;4.60;99.90;;;;;;5000125;28;20132;-72
2021/12/02 13:19:26;;;;;;;2.40;0.40;;;4.60;99.90;;;;;;4991294;28;20046;-72
2021/12/02 13:21:58;;;;;;;2.40;0.30;;;4.60;99.90;;;;;;4990889;28;20670;-73
2021/12/02 13:24:33;;;;;;;1.02;0.25;;;4.70;99.90;;;;;;4997351;28;20059;-72
2021/12/02 13:27:05;;;;;;;1.35;0.20;;;4.70;99.90;;;;;;4992003;28;20052;-72
2021/12/02 13:29:34;;;;;;;0.85;0.20;;;4.80;99.90;;;;;;5002495;28;20087;-73
2021/12/02 13:32:09;;;;;;;0.75;0.32;;;4.80;99.90;;;;;;5007305;28;20548;-73
2021/12/02 13:34:35;;;;;;;0.30;0.00;;;4.60;99.90;;;;;;4988262;28;20065;-72